Terminal Aerodrome Forecast
Issued by NWS

Home | Current Version | Previous Version | Text Only | Print | Product List | Glossary On
Versions: 1 2 3 4 5 6 7 8 9 10 11 12 13 14 15 16 17 18 19
000
FTUS43 KMKX 271725
TAFENW
TAF
KENW 271725Z 2718/2818 25006KT P6SM BKN040
     FM272000 22007KT P6SM SCT035
     FM272300 15006KT P6SM BKN035
     FM280000 13005KT P6SM VCTS BKN050CB
     FM280200 10004KT P6SM VCTS SCT050CB
     FM280300 VRB03KT P6SM SCT200 PROB30 2803/2809 4SM TSRA OVC040CB
     FM280900 05004KT 3SM BR BKN070 PROB30 2809/2812 2SM TSRA BR
      OVC040CB
     FM281200 05005KT P6SM BKN140=

USA.gov is the U.S. government's official web portal to all federal, state and local government web resources and services.